createdAt,value
2018-09-12T00:00:40.310Z,12.00
2018-09-12T00:01:40.290Z,12.40
2018-09-12T00:02:40.272Z,12.40
2018-09-12T00:03:40.253Z,12.50
2018-09-12T00:04:40.235Z,12.10
2018-09-12T00:05:40.216Z,12.80
2018-09-12T00:06:40.199Z,11.80
2018-09-12T00:07:40.188Z,12.40
2018-09-12T00:08:40.161Z,10.80
2018-09-12T00:09:40.143Z,11.90
2018-09-12T00:10:40.128Z,11.70
2018-09-12T00:11:40.105Z,12.10
2018-09-12T00:12:40.087Z,12.00
2018-09-12T00:13:40.070Z,12.20
2018-09-12T00:14:40.052Z,11.90
2018-09-12T00:15:40.032Z,12.10
2018-09-12T00:16:40.014Z,11.90
2018-09-12T00:17:39.996Z,12.60
2018-09-12T00:18:39.976Z,12.40
2018-09-12T00:19:39.958Z,12.50
2018-09-12T00:20:39.939Z,12.00
2018-09-12T00:21:39.921Z,12.10
2018-09-12T00:22:39.903Z,11.70
2018-09-12T00:23:39.884Z,11.90
2018-09-12T00:24:39.866Z,11.20
2018-09-12T00:25:39.848Z,11.40
2018-09-12T00:26:39.829Z,11.60
2018-09-12T00:27:39.816Z,12.20
2018-09-12T00:28:39.792Z,11.40
2018-09-12T00:29:39.782Z,10.80
2018-09-12T00:30:39.758Z,11.60
2018-09-12T00:31:39.736Z,11.90
2018-09-12T00:32:39.719Z,11.90
2018-09-12T00:33:39.699Z,11.80
2018-09-12T00:34:39.682Z,12.00
2018-09-12T00:35:39.661Z,11.40
2018-09-12T00:36:39.644Z,12.00
2018-09-12T00:37:39.625Z,12.30
2018-09-12T00:38:39.610Z,12.10
2018-09-12T00:39:39.588Z,11.10
2018-09-12T00:40:39.570Z,11.30
2018-09-12T00:41:39.551Z,11.00
2018-09-12T00:42:39.532Z,12.00
2018-09-12T00:43:39.514Z,11.60
2018-09-12T00:44:39.495Z,11.50
2018-09-12T00:45:39.476Z,12.20
2018-09-12T00:46:39.457Z,12.30
2018-09-12T00:47:39.438Z,11.50
2018-09-12T00:48:39.429Z,11.60
2018-09-12T00:49:39.402Z,11.80
2018-09-12T00:50:39.383Z,11.90
2018-09-12T00:51:39.365Z,10.90
2018-09-12T00:52:39.345Z,11.90
2018-09-12T00:53:39.329Z,10.70
2018-09-12T00:54:39.308Z,11.60
2018-09-12T00:55:39.289Z,11.30
2018-09-12T00:56:39.270Z,10.80
2018-09-12T00:57:39.254Z,10.70
2018-09-12T00:58:39.242Z,11.00
2018-09-12T00:59:39.216Z,10.30
2018-09-12T01:00:39.196Z,10.20
2018-09-12T01:01:39.178Z,11.10
2018-09-12T01:02:39.159Z,10.60
2018-09-12T01:03:39.140Z,10.60
2018-09-12T01:04:39.120Z,10.40
2018-09-12T01:05:39.101Z,10.10
2018-09-12T01:06:39.082Z,10.70
2018-09-12T01:07:39.064Z,10.70
2018-09-12T01:08:39.046Z,10.30
2018-09-12T01:09:39.026Z,10.70
2018-09-12T01:10:39.007Z,10.80
2018-09-12T01:11:38.989Z,10.50
2018-09-12T01:12:38.968Z,11.00
2018-09-12T01:13:38.955Z,10.80
2018-09-12T01:14:38.931Z,11.30
2018-09-12T01:15:38.911Z,11.40
2018-09-12T01:16:38.893Z,11.60
2018-09-12T01:17:38.874Z,10.30
2018-09-12T01:18:38.855Z,10.50
2018-09-12T01:19:38.837Z,11.20
2018-09-12T01:20:38.818Z,11.00
2018-09-12T01:21:38.799Z,10.60
2018-09-12T01:22:38.780Z,10.70
2018-09-12T01:23:38.762Z,11.50
2018-09-12T01:24:38.741Z,11.80
2018-09-12T01:25:39.473Z,11.40
2018-09-12T01:26:38.705Z,11.40
2018-09-12T01:27:38.685Z,11.60
2018-09-12T01:28:38.667Z,11.00
2018-09-12T01:29:38.646Z,11.70
2018-09-12T01:30:38.627Z,12.20
2018-09-12T01:31:38.609Z,11.70
2018-09-12T01:32:38.590Z,11.30
2018-09-12T01:33:38.570Z,10.80
2018-09-12T01:34:38.551Z,12.00
2018-09-12T01:35:38.532Z,11.60
2018-09-12T01:36:38.513Z,11.60
2018-09-12T01:37:38.493Z,11.20
2018-09-12T01:38:38.475Z,11.00
2018-09-12T01:39:38.455Z,10.70
2018-09-12T01:40:38.436Z,11.30
2018-09-12T01:41:38.419Z,11.00
2018-09-12T01:42:38.400Z,10.80
2018-09-12T01:43:38.384Z,10.80
2018-09-12T01:44:38.360Z,11.00
2018-09-12T01:45:38.342Z,12.00
2018-09-12T01:46:38.322Z,11.50
2018-09-12T01:47:38.303Z,12.20
2018-09-12T01:48:38.283Z,11.80
2018-09-12T01:49:38.265Z,12.50
2018-09-12T01:50:38.246Z,12.10
2018-09-12T01:51:38.226Z,12.10
2018-09-12T01:52:38.213Z,11.50
2018-09-12T01:53:38.188Z,10.80
2018-09-12T01:54:38.170Z,10.70
2018-09-12T01:55:38.149Z,11.50
2018-09-12T01:56:38.130Z,11.30
2018-09-12T01:57:38.111Z,12.60
2018-09-12T01:58:38.092Z,12.00
2018-09-12T01:59:38.073Z,11.80
2018-09-12T02:00:38.053Z,11.80
2018-09-12T02:01:38.034Z,12.70
2018-09-12T02:02:38.019Z,12.70
2018-09-12T02:03:37.997Z,12.30
2018-09-12T02:04:37.979Z,13.10
2018-09-12T02:05:37.958Z,13.40
2018-09-12T02:06:37.938Z,13.90
2018-09-12T02:07:37.920Z,13.50
2018-09-12T02:08:37.900Z,13.60
2018-09-12T02:09:37.882Z,12.90
2018-09-12T02:10:37.861Z,13.70
2018-09-12T02:11:37.841Z,13.30
2018-09-12T02:12:37.823Z,13.00
2018-09-12T02:13:37.805Z,13.40
2018-09-12T02:14:37.785Z,13.30
2018-09-12T02:15:37.764Z,14.00
2018-09-12T02:16:37.747Z,13.20
2018-09-12T02:17:37.728Z,13.30
2018-09-12T02:18:37.708Z,13.30
2018-09-12T02:19:37.687Z,12.90
2018-09-12T02:20:37.669Z,12.70
2018-09-12T02:21:37.649Z,13.20
2018-09-12T02:22:37.629Z,13.00
2018-09-12T02:23:37.609Z,13.50
2018-09-12T02:24:37.592Z,14.00
2018-09-12T02:25:37.571Z,13.20
2018-09-12T02:26:37.552Z,13.00
2018-09-12T02:27:37.533Z,14.50
2018-09-12T02:28:37.513Z,13.40
2018-09-12T02:29:37.494Z,13.70
2018-09-12T02:30:37.475Z,14.50
2018-09-12T02:31:37.454Z,13.30
2018-09-12T02:32:37.436Z,14.00
2018-09-12T02:33:37.417Z,14.20
2018-09-12T02:34:37.398Z,13.20
2018-09-12T02:35:37.381Z,13.30
2018-09-12T02:36:37.363Z,13.90
2018-09-12T02:37:37.339Z,14.00
2018-09-12T02:38:37.323Z,14.40
2018-09-12T02:39:38.051Z,14.00
2018-09-12T02:40:37.279Z,14.00
2018-09-12T02:41:37.260Z,14.20
2018-09-12T02:42:37.242Z,13.80
2018-09-12T02:43:37.222Z,13.90
2018-09-12T02:44:37.207Z,14.80
2018-09-12T02:45:37.183Z,14.60
2018-09-12T02:46:37.163Z,15.30
2018-09-12T02:47:37.144Z,15.40
2018-09-12T02:48:37.127Z,14.80
2018-09-12T02:49:37.106Z,14.80
2018-09-12T02:50:37.090Z,14.60
2018-09-12T02:51:37.066Z,15.60
2018-09-12T02:52:37.052Z,15.80
2018-09-12T02:53:37.028Z,15.80
2018-09-12T02:54:37.007Z,14.30
2018-09-12T02:55:36.988Z,14.00
2018-09-12T02:56:36.967Z,13.30
2018-09-12T02:57:36.948Z,14.60
2018-09-12T02:58:36.929Z,13.80
2018-09-12T02:59:36.908Z,14.80
2018-09-12T03:00:36.891Z,14.90
2018-09-12T03:01:36.869Z,15.40
2018-09-12T03:02:36.850Z,14.10
2018-09-12T03:03:36.831Z,13.30
2018-09-12T03:04:36.810Z,14.20
2018-09-12T03:05:36.791Z,13.30
2018-09-12T03:06:37.523Z,14.00
2018-09-12T03:07:36.750Z,13.60
2018-09-12T03:08:36.732Z,13.60
2018-09-12T03:09:36.713Z,14.30
2018-09-12T03:10:36.693Z,13.70
2018-09-12T03:11:36.672Z,14.10
2018-09-12T03:12:36.655Z,13.70
2018-09-12T03:13:36.633Z,15.50
2018-09-12T03:14:36.614Z,14.80
2018-09-12T03:15:36.595Z,13.90
2018-09-12T03:16:36.573Z,14.30
2018-09-12T03:17:36.556Z,14.40
2018-09-12T03:18:36.534Z,14.40
2018-09-12T03:19:36.514Z,13.60
2018-09-12T03:20:36.568Z,13.60
2018-09-12T03:21:36.475Z,13.80
2018-09-12T03:22:36.456Z,13.00
2018-09-12T03:23:36.435Z,13.20
2018-09-12T03:24:36.415Z,13.10
2018-09-12T03:25:36.397Z,12.80
2018-09-12T03:26:36.376Z,12.70
2018-09-12T03:27:37.113Z,13.50
2018-09-12T03:28:36.339Z,12.90
2018-09-12T03:29:36.318Z,12.30
2018-09-12T03:30:36.297Z,12.70
2018-09-12T03:31:36.277Z,12.30
2018-09-12T03:32:36.263Z,13.00
2018-09-12T03:33:36.235Z,13.00
2018-09-12T03:34:36.218Z,13.20
2018-09-12T03:35:36.195Z,13.50
2018-09-12T03:36:36.176Z,13.50
2018-09-12T03:37:36.156Z,14.30
2018-09-12T03:38:36.136Z,13.80
2018-09-12T03:39:36.116Z,13.40
2018-09-12T03:40:36.096Z,13.60
2018-09-12T03:41:36.076Z,13.80
2018-09-12T03:42:36.056Z,14.40
2018-09-12T03:43:36.036Z,13.70
2018-09-12T03:44:36.016Z,13.30
2018-09-12T03:45:35.996Z,13.90
2018-09-12T03:46:35.977Z,13.70
2018-09-12T03:47:35.956Z,13.70
2018-09-12T03:48:35.935Z,12.70
2018-09-12T03:49:35.917Z,12.30
2018-09-12T03:50:35.896Z,13.70
2018-09-12T03:51:35.875Z,13.70
2018-09-12T03:52:35.856Z,12.70
2018-09-12T03:53:38.090Z,13.30
2018-09-12T03:54:35.816Z,12.30
2018-09-12T03:55:35.796Z,12.50
2018-09-12T03:56:35.777Z,13.30
2018-09-12T03:57:35.756Z,13.10
2018-09-12T03:58:35.736Z,12.10
2018-09-12T03:59:35.715Z,13.80
2018-09-12T04:00:35.694Z,13.10
2018-09-12T04:01:35.675Z,12.70
2018-09-12T04:02:35.775Z,12.80
2018-09-12T04:03:35.635Z,13.80
2018-09-12T04:04:35.615Z,14.00
2018-09-12T04:05:35.595Z,13.60
2018-09-12T04:06:35.575Z,13.90
2018-09-12T04:07:35.554Z,13.30
2018-09-12T04:08:35.534Z,13.10
2018-09-12T04:09:35.517Z,13.60
2018-09-12T04:10:35.495Z,13.30
2018-09-12T04:11:35.475Z,13.60
2018-09-12T04:12:35.456Z,14.10
2018-09-12T04:13:35.434Z,13.10
2018-09-12T04:14:35.416Z,13.20
2018-09-12T04:15:35.395Z,13.20
2018-09-12T04:16:35.376Z,12.70
2018-09-12T04:17:35.356Z,13.70
2018-09-12T04:18:35.335Z,13.50
2018-09-12T04:19:35.315Z,13.20
2018-09-12T04:20:36.049Z,14.10
2018-09-12T04:21:35.274Z,13.80
2018-09-12T04:22:35.255Z,13.80
2018-09-12T04:23:35.234Z,13.80
2018-09-12T04:24:35.214Z,13.60
2018-09-12T04:25:35.195Z,14.20
2018-09-12T04:26:35.175Z,13.90
2018-09-12T04:27:35.154Z,14.90
2018-09-12T04:28:35.135Z,14.00
2018-09-12T04:29:35.115Z,13.30
2018-09-12T04:30:35.095Z,14.60
2018-09-12T04:31:35.073Z,14.50
2018-09-12T04:32:35.055Z,13.80
2018-09-12T04:33:35.035Z,14.40
2018-09-12T04:34:35.015Z,13.70
2018-09-12T04:35:34.995Z,13.80
2018-09-12T04:36:34.974Z,14.20
2018-09-12T04:37:34.954Z,14.20
2018-09-12T04:38:34.934Z,13.30
2018-09-12T04:39:34.918Z,15.60
2018-09-12T04:40:34.895Z,14.40
2018-09-12T04:41:34.877Z,14.10
2018-09-12T04:42:34.865Z,14.80
2018-09-12T04:43:34.835Z,14.40
2018-09-12T04:44:34.815Z,13.80
2018-09-12T04:45:34.796Z,14.80
2018-09-12T04:46:34.775Z,14.70
2018-09-12T04:47:34.754Z,14.30
2018-09-12T04:48:34.846Z,14.20
2018-09-12T04:49:34.714Z,13.50
2018-09-12T04:50:34.694Z,14.90
2018-09-12T04:51:34.676Z,15.20
2018-09-12T04:52:34.654Z,15.40
2018-09-12T04:53:34.639Z,15.50
2018-09-12T04:54:34.615Z,14.80
2018-09-12T04:55:34.593Z,14.90
2018-09-12T04:56:34.576Z,15.40
2018-09-12T04:57:34.559Z,15.90
2018-09-12T04:58:34.535Z,15.30
2018-09-12T04:59:34.550Z,16.00
2018-09-12T05:00:34.496Z,15.10
2018-09-12T05:01:34.475Z,14.90
2018-09-12T05:02:34.457Z,15.10
2018-09-12T05:03:34.435Z,16.20
2018-09-12T05:04:34.414Z,17.40
2018-09-12T05:05:34.395Z,15.80
2018-09-12T05:06:34.376Z,17.10
2018-09-12T05:07:34.355Z,15.60
2018-09-12T05:08:34.334Z,16.90
2018-09-12T05:09:34.315Z,15.60
2018-09-12T05:10:34.296Z,15.40
2018-09-12T05:11:34.274Z,15.40
2018-09-12T05:12:34.257Z,16.70
2018-09-12T05:13:34.245Z,16.00
2018-09-12T05:14:34.217Z,14.90
2018-09-12T05:15:34.196Z,14.80
2018-09-12T05:16:34.214Z,15.70
2018-09-12T05:17:34.157Z,15.90
2018-09-12T05:18:34.136Z,14.90
2018-09-12T05:19:34.116Z,15.30
2018-09-12T05:20:34.095Z,15.80
2018-09-12T05:21:34.076Z,15.90
2018-09-12T05:22:34.059Z,15.00
2018-09-12T05:23:34.037Z,15.30
2018-09-12T05:24:34.016Z,16.00
2018-09-12T05:25:33.996Z,14.80
2018-09-12T05:26:33.979Z,15.60
2018-09-12T05:27:33.957Z,15.00
2018-09-12T05:28:34.054Z,14.90
2018-09-12T05:29:33.918Z,15.10
2018-09-12T05:30:33.901Z,15.30
2018-09-12T05:31:33.876Z,14.90
2018-09-12T05:32:33.857Z,14.90
2018-09-12T05:33:33.838Z,14.50
2018-09-12T05:34:33.817Z,15.50
2018-09-12T05:35:33.798Z,15.40
2018-09-12T05:36:33.778Z,15.00
2018-09-12T05:37:33.759Z,14.20
2018-09-12T05:38:33.847Z,15.00
2018-09-12T05:39:33.718Z,13.90
2018-09-12T05:40:33.700Z,14.50
2018-09-12T05:41:33.680Z,14.50
2018-09-12T05:42:33.661Z,14.30
2018-09-12T05:43:33.655Z,15.00
2018-09-12T05:44:33.620Z,14.90
2018-09-12T05:45:33.635Z,14.80
2018-09-12T05:46:33.601Z,14.30
2018-09-12T05:47:33.564Z,14.60
2018-09-12T05:48:33.544Z,14.20
2018-09-12T05:49:33.522Z,15.30
2018-09-12T05:50:33.548Z,14.70
2018-09-12T05:51:33.489Z,15.20
2018-09-12T05:52:33.462Z,15.40
2018-09-12T05:53:37.947Z,15.70
2018-09-12T05:54:33.423Z,15.30
2018-09-12T05:55:33.406Z,14.50
2018-09-12T05:56:33.384Z,15.20
2018-09-12T05:57:33.364Z,14.90
2018-09-12T05:58:33.348Z,16.10
2018-09-12T05:59:34.075Z,16.00
2018-09-12T06:00:33.306Z,14.90
2018-09-12T06:01:33.286Z,15.70
2018-09-12T06:02:33.266Z,14.70
2018-09-12T06:03:33.247Z,16.10
2018-09-12T06:04:33.227Z,15.50
2018-09-12T06:05:33.210Z,16.20
2018-09-12T06:06:33.324Z,15.30
2018-09-12T06:07:33.168Z,15.10
2018-09-12T06:08:33.148Z,15.40
2018-09-12T06:09:33.129Z,14.40
2018-09-12T06:10:33.110Z,16.10
2018-09-12T06:11:33.090Z,15.80
2018-09-12T06:12:33.073Z,16.50
2018-09-12T06:13:33.052Z,15.40
2018-09-12T06:14:33.034Z,15.70
2018-09-12T06:15:33.012Z,15.50
2018-09-12T06:16:32.993Z,16.40
2018-09-12T06:17:32.974Z,16.00
2018-09-12T06:18:32.955Z,15.70
2018-09-12T06:19:32.935Z,16.30
2018-09-12T06:20:32.915Z,14.80
2018-09-12T06:21:32.896Z,15.70
2018-09-12T06:22:32.878Z,15.30
2018-09-12T06:23:32.857Z,14.70
2018-09-12T06:24:32.840Z,15.40
2018-09-12T06:25:32.821Z,14.40
2018-09-12T06:26:35.805Z,15.20
2018-09-12T06:27:32.783Z,15.40
2018-09-12T06:28:32.766Z,15.40
2018-09-12T06:29:32.747Z,14.70
2018-09-12T06:30:32.725Z,15.00
2018-09-12T06:31:32.709Z,14.20
2018-09-12T06:32:33.437Z,14.80
2018-09-12T06:33:32.669Z,13.90
2018-09-12T06:34:32.649Z,15.40
2018-09-12T06:35:32.628Z,15.10
2018-09-12T06:36:32.609Z,15.40
2018-09-12T06:37:32.598Z,15.30
2018-09-12T06:38:32.615Z,15.00
2018-09-12T06:39:32.567Z,15.10
2018-09-12T06:40:32.532Z,14.30
2018-09-12T06:41:32.513Z,15.30
2018-09-12T06:42:32.496Z,15.00
2018-09-12T06:43:32.480Z,16.00
2018-09-12T06:44:32.501Z,15.00
2018-09-12T06:45:32.437Z,14.60
2018-09-12T06:46:32.419Z,14.90
2018-09-12T06:47:32.400Z,14.70
2018-09-12T06:48:32.380Z,15.40
2018-09-12T06:49:32.362Z,14.80
2018-09-12T06:50:32.345Z,15.50
2018-09-12T06:51:32.327Z,15.40
2018-09-12T06:52:32.306Z,15.30
2018-09-12T06:53:32.287Z,14.40
2018-09-12T06:54:32.278Z,14.60
2018-09-12T06:55:32.250Z,15.80
2018-09-12T06:56:32.230Z,15.90
2018-09-12T06:57:32.212Z,14.90
2018-09-12T06:58:32.194Z,14.70
2018-09-12T06:59:32.175Z,15.10
2018-09-12T07:00:32.179Z,15.00
2018-09-12T07:01:32.138Z,15.50
2018-09-12T07:02:32.119Z,14.40
2018-09-12T07:03:32.100Z,15.20
2018-09-12T07:04:32.082Z,14.60
2018-09-12T07:05:32.063Z,15.00
2018-09-12T07:06:32.046Z,14.80
2018-09-12T07:07:32.029Z,14.90
2018-09-12T07:08:32.007Z,15.80
2018-09-12T07:09:31.989Z,14.80
2018-09-12T07:10:31.971Z,15.40
2018-09-12T07:11:31.951Z,15.20
2018-09-12T07:12:31.934Z,15.10
2018-09-12T07:13:31.917Z,15.10
2018-09-12T07:14:31.897Z,14.30
2018-09-12T07:15:31.878Z,15.20
2018-09-12T07:16:31.860Z,14.80
2018-09-12T07:17:31.842Z,15.50
2018-09-12T07:18:31.826Z,15.60
2018-09-12T07:19:31.808Z,14.90
2018-09-12T07:20:31.791Z,15.40
2018-09-12T07:21:31.820Z,15.00
2018-09-12T07:22:31.752Z,15.00
2018-09-12T07:23:31.732Z,15.80
2018-09-12T07:24:31.805Z,15.30
2018-09-12T07:25:32.448Z,15.00
2018-09-12T07:26:31.680Z,15.30
2018-09-12T07:27:31.700Z,16.30
2018-09-12T07:28:31.641Z,15.30
2018-09-12T07:29:31.624Z,15.40
2018-09-12T07:30:31.656Z,14.30
2018-09-12T07:31:31.590Z,15.40
2018-09-12T07:32:31.571Z,16.00
2018-09-12T07:33:31.552Z,15.30
2018-09-12T07:34:31.536Z,15.80
2018-09-12T07:35:31.520Z,16.30
2018-09-12T07:36:31.499Z,16.40
2018-09-12T07:37:31.480Z,15.80
2018-09-12T07:38:31.467Z,16.30
2018-09-12T07:39:31.445Z,15.80
2018-09-12T07:40:31.427Z,15.20
2018-09-12T07:41:31.467Z,14.60
2018-09-12T07:42:31.391Z,16.40
2018-09-12T07:43:31.373Z,15.00
2018-09-12T07:44:31.356Z,15.60
2018-09-12T07:45:31.339Z,15.80
2018-09-12T07:46:31.321Z,15.90
2018-09-12T07:47:31.302Z,14.40
2018-09-12T07:48:31.285Z,14.80
2018-09-12T07:49:31.267Z,15.00
2018-09-12T07:50:31.250Z,14.50
2018-09-12T07:51:31.232Z,14.30
2018-09-12T07:52:31.215Z,14.40
2018-09-12T07:53:31.199Z,13.90
2018-09-12T07:54:31.178Z,13.30
2018-09-12T07:55:31.160Z,13.50
2018-09-12T07:56:31.208Z,12.30
2018-09-12T07:57:31.127Z,13.70
2018-09-12T07:58:31.108Z,12.80
2018-09-12T07:59:31.090Z,13.50
2018-09-12T08:00:31.150Z,13.00
2018-09-12T08:01:31.057Z,12.70
2018-09-12T08:02:31.040Z,12.30
2018-09-12T08:03:31.023Z,12.30
2018-09-12T08:04:31.004Z,11.80
2018-09-12T08:05:30.987Z,12.00
2018-09-12T08:06:30.969Z,11.30
2018-09-12T08:07:30.952Z,11.20
2018-09-12T08:08:30.933Z,11.10
2018-09-12T08:09:30.916Z,12.00
2018-09-12T08:10:30.900Z,11.40
2018-09-12T08:11:30.881Z,11.70
2018-09-12T08:12:30.865Z,11.40
2018-09-12T08:13:30.847Z,11.70
2018-09-12T08:14:30.830Z,11.40
2018-09-12T08:15:30.812Z,11.50
2018-09-12T08:16:30.801Z,11.60
2018-09-12T08:17:30.777Z,10.70
2018-09-12T08:18:30.761Z,10.70
2018-09-12T08:19:30.743Z,11.00
2018-09-12T08:20:30.727Z,11.60
2018-09-12T08:21:30.710Z,12.30
2018-09-12T08:22:30.693Z,12.00
2018-09-12T08:23:30.675Z,11.80
2018-09-12T08:24:30.658Z,11.90
2018-09-12T08:25:30.641Z,11.00
2018-09-12T08:26:30.629Z,10.80
2018-09-12T08:27:30.607Z,11.10
2018-09-12T08:28:30.590Z,11.60
2018-09-12T08:29:30.573Z,11.10
2018-09-12T08:30:30.557Z,10.60
2018-09-12T08:31:30.540Z,10.10
2018-09-12T08:32:30.527Z,10.50
2018-09-12T08:33:30.508Z,10.90
2018-09-12T08:34:30.493Z,10.60
2018-09-12T08:35:30.522Z,10.70
2018-09-12T08:36:30.538Z,11.20
2018-09-12T08:37:30.438Z,10.60
2018-09-12T08:38:30.424Z,11.00
2018-09-12T08:39:30.405Z,11.10
2018-09-12T08:40:30.392Z,10.90
2018-09-12T08:41:30.373Z,11.20
2018-09-12T08:42:30.365Z,11.50
2018-09-12T08:43:30.338Z,11.80
2018-09-12T08:44:30.323Z,11.10
2018-09-12T08:45:30.305Z,11.60
2018-09-12T08:46:30.290Z,11.80
2018-09-12T08:47:30.272Z,11.30
2018-09-12T08:48:30.257Z,11.10
2018-09-12T08:49:30.240Z,11.40
2018-09-12T08:50:30.223Z,11.90
2018-09-12T08:51:31.707Z,11.40
2018-09-12T08:52:30.189Z,11.90
2018-09-12T08:53:30.172Z,11.60
2018-09-12T08:54:30.156Z,11.70
2018-09-12T08:55:30.139Z,11.10
2018-09-12T08:56:30.126Z,11.60
2018-09-12T08:57:30.907Z,10.40
2018-09-12T08:58:30.090Z,11.20
2018-09-12T08:59:30.074Z,10.80
2018-09-12T09:00:30.057Z,10.40
2018-09-12T09:01:30.111Z,11.40
2018-09-12T09:02:30.025Z,10.90
2018-09-12T09:03:30.007Z,11.10
2018-09-12T09:04:29.992Z,11.70
2018-09-12T09:05:29.977Z,11.40
2018-09-12T09:06:29.960Z,10.70
2018-09-12T09:07:29.945Z,11.40
2018-09-12T09:08:29.927Z,10.80
2018-09-12T09:09:29.910Z,11.10
2018-09-12T09:10:29.992Z,10.90
2018-09-12T09:11:29.878Z,10.50
2018-09-12T09:12:29.861Z,11.00
2018-09-12T09:13:29.846Z,11.40
2018-09-12T09:14:29.829Z,9.90
2018-09-12T09:15:29.813Z,10.80
2018-09-12T09:16:29.797Z,11.20
2018-09-12T09:17:29.780Z,11.00
2018-09-12T09:18:29.764Z,11.10
2018-09-12T09:19:29.747Z,9.90
2018-09-12T09:20:29.732Z,10.10
2018-09-12T09:21:29.717Z,10.40
2018-09-12T09:22:29.700Z,10.20
2018-09-12T09:23:29.691Z,10.20
2018-09-12T09:24:29.668Z,9.90
2018-09-12T09:25:29.654Z,10.70
2018-09-12T09:26:29.635Z,10.30
2018-09-12T09:27:29.620Z,9.70
2018-09-12T09:28:29.606Z,10.70
2018-09-12T09:29:29.655Z,10.40
2018-09-12T09:30:29.573Z,10.90
2018-09-12T09:31:29.556Z,10.30
2018-09-12T09:32:29.548Z,10.20
2018-09-12T09:33:29.526Z,10.10
2018-09-12T09:34:29.509Z,9.50
2018-09-12T09:35:29.688Z,9.30
2018-09-12T09:36:29.477Z,9.50
2018-09-12T09:37:29.460Z,9.40
2018-09-12T09:38:29.445Z,9.40
2018-09-12T09:39:29.433Z,9.70
2018-09-12T09:40:29.413Z,9.70
2018-09-12T09:41:29.398Z,9.90
2018-09-12T09:42:29.386Z,9.50
2018-09-12T09:43:29.366Z,8.90
2018-09-12T09:44:30.852Z,8.90
2018-09-12T09:45:29.395Z,9.10
2018-09-12T09:46:29.320Z,9.40
2018-09-12T09:47:29.304Z,9.10
2018-09-12T09:48:29.318Z,8.80
2018-09-12T09:49:29.335Z,7.90
2018-09-12T09:50:30.011Z,8.30
2018-09-12T09:51:29.241Z,8.60
2018-09-12T09:52:29.229Z,8.30
2018-09-12T09:53:29.210Z,8.50
2018-09-12T09:54:29.231Z,9.50
2018-09-12T09:55:29.181Z,8.40
2018-09-12T09:56:29.164Z,8.40
2018-09-12T09:57:29.149Z,8.50
2018-09-12T09:58:29.134Z,7.70
2018-09-12T09:59:29.117Z,8.10
2018-09-12T10:00:29.153Z,7.20
2018-09-12T10:01:29.089Z,7.90
2018-09-12T10:02:29.072Z,8.70
2018-09-12T10:03:29.058Z,7.20
2018-09-12T10:04:29.045Z,7.50
2018-09-12T10:05:29.027Z,7.80
2018-09-12T10:06:30.513Z,7.20
2018-09-12T10:07:28.995Z,7.60
2018-09-12T10:08:28.981Z,7.30
2018-09-12T10:09:28.965Z,7.40
2018-09-12T10:10:28.971Z,7.00
2018-09-12T10:11:28.936Z,7.60
2018-09-12T10:12:29.671Z,7.90
2018-09-12T10:13:28.904Z,7.70
2018-09-12T10:14:28.891Z,7.90
2018-09-12T10:15:28.877Z,8.10
2018-09-12T10:16:28.859Z,7.50
2018-09-12T10:17:28.844Z,7.10
2018-09-12T10:18:28.829Z,6.60
2018-09-12T10:19:28.814Z,6.40
2018-09-12T10:20:28.799Z,6.30
2018-09-12T10:21:28.785Z,6.10
2018-09-12T10:22:28.770Z,6.30
2018-09-12T10:23:28.754Z,6.20
2018-09-12T10:24:28.740Z,6.30
2018-09-12T10:25:28.726Z,6.00
2018-09-12T10:26:28.711Z,6.30
2018-09-12T10:27:28.695Z,5.80
2018-09-12T10:28:28.682Z,6.10
2018-09-12T10:29:28.666Z,5.80
2018-09-12T10:30:28.651Z,5.60
2018-09-12T10:31:28.636Z,6.10
2018-09-12T10:32:28.622Z,6.20
2018-09-12T10:33:28.607Z,6.10
2018-09-12T10:34:28.593Z,6.10
2018-09-12T10:35:28.576Z,6.10
2018-09-12T10:36:28.563Z,5.80
2018-09-12T10:37:28.548Z,5.60
2018-09-12T10:38:28.539Z,6.20
2018-09-12T10:39:28.518Z,5.90
2018-09-12T10:40:28.504Z,5.90
2018-09-12T10:41:28.489Z,5.40
2018-09-12T10:42:28.474Z,5.70
2018-09-12T10:43:28.459Z,5.50
2018-09-12T10:44:28.445Z,5.90
2018-09-12T10:45:28.431Z,6.00
2018-09-12T10:46:28.416Z,5.70
2018-09-12T10:47:28.401Z,5.90
2018-09-12T10:48:28.387Z,6.20
2018-09-12T10:49:28.372Z,6.00
2018-09-12T10:50:28.358Z,5.60
2018-09-12T10:51:28.342Z,6.10
2018-09-12T10:52:28.330Z,5.60
2018-09-12T10:53:28.314Z,5.70
2018-09-12T10:54:28.301Z,5.40
2018-09-12T10:55:28.286Z,5.40
2018-09-12T10:56:28.270Z,5.30
2018-09-12T10:57:28.256Z,5.00
2018-09-12T10:58:28.241Z,5.20
2018-09-12T10:59:28.230Z,5.40
2018-09-12T11:00:28.213Z,5.50
2018-09-12T11:01:28.198Z,5.70
2018-09-12T11:02:28.186Z,5.60
2018-09-12T11:03:28.170Z,5.70
2018-09-12T11:04:28.271Z,5.50
2018-09-12T11:05:28.141Z,5.80
2018-09-12T11:06:28.131Z,5.60
2018-09-12T11:07:28.112Z,5.50
2018-09-12T11:08:28.098Z,5.60
2018-09-12T11:09:28.084Z,5.90
2018-09-12T11:10:28.071Z,5.50
2018-09-12T11:11:28.056Z,5.70
2018-09-12T11:12:28.042Z,5.60
2018-09-12T11:13:28.028Z,5.60
2018-09-12T11:14:28.017Z,5.10
2018-09-12T11:15:28.000Z,5.20
2018-09-12T11:16:27.985Z,4.40
2018-09-12T11:17:27.973Z,4.70
2018-09-12T11:18:27.958Z,4.80
2018-09-12T11:19:27.944Z,5.10
2018-09-12T11:20:27.929Z,4.90
2018-09-12T11:21:27.917Z,4.80
2018-09-12T11:22:27.901Z,5.20
2018-09-12T11:23:27.887Z,5.00
2018-09-12T11:24:27.873Z,5.40
2018-09-12T11:25:27.863Z,5.00
2018-09-12T11:26:29.347Z,5.00
2018-09-12T11:27:27.831Z,5.30
2018-09-12T11:28:27.818Z,5.30
2018-09-12T11:29:27.805Z,5.40
2018-09-12T11:30:27.792Z,5.90
2018-09-12T11:31:27.776Z,5.20
2018-09-12T11:32:28.565Z,5.30
2018-09-12T11:33:27.749Z,5.30
2018-09-12T11:34:27.737Z,5.40
2018-09-12T11:35:27.723Z,5.50
2018-09-12T11:36:27.707Z,5.50
2018-09-12T11:37:27.694Z,5.40
2018-09-12T11:38:27.682Z,5.50
2018-09-12T11:39:27.667Z,5.10
2018-09-12T11:40:27.654Z,5.10
2018-09-12T11:41:27.640Z,5.30
2018-09-12T11:42:27.625Z,5.30
2018-09-12T11:43:29.113Z,5.40
2018-09-12T11:44:27.598Z,4.60
2018-09-12T11:45:27.586Z,4.70
2018-09-12T11:46:27.572Z,4.50
2018-09-12T11:47:27.557Z,5.10
2018-09-12T11:48:27.547Z,4.80
2018-09-12T11:49:27.530Z,5.00
2018-09-12T11:50:27.518Z,5.00
2018-09-12T11:51:27.505Z,5.10
2018-09-12T11:52:27.490Z,5.00
2018-09-12T11:53:27.480Z,5.10
2018-09-12T11:54:27.464Z,5.30
2018-09-12T11:55:27.500Z,5.30
2018-09-12T11:56:27.437Z,5.20
2018-09-12T11:57:27.424Z,5.00
2018-09-12T11:58:27.410Z,4.60
2018-09-12T11:59:27.397Z,5.20
2018-09-12T12:00:30.386Z,5.30
2018-09-12T12:01:27.370Z,5.10
2018-09-12T12:02:27.357Z,5.00
2018-09-12T12:03:27.343Z,4.90
2018-09-12T12:04:27.331Z,4.70
2018-09-12T12:05:27.317Z,4.80
2018-09-12T12:06:27.305Z,5.00
2018-09-12T12:07:27.290Z,4.90
2018-09-12T12:08:27.279Z,4.30
2018-09-12T12:09:27.263Z,4.50
2018-09-12T12:10:27.251Z,4.60
2018-09-12T12:11:27.237Z,4.60
2018-09-12T12:12:27.224Z,5.40
2018-09-12T12:13:27.212Z,4.80
2018-09-12T12:14:27.198Z,4.90
2018-09-12T12:15:27.255Z,4.70
2018-09-12T12:16:27.207Z,4.60
2018-09-12T12:17:27.159Z,4.70
2018-09-12T12:18:27.146Z,4.80
2018-09-12T12:19:27.134Z,4.10
2018-09-12T12:20:27.121Z,4.00
2018-09-12T12:21:27.108Z,4.30
2018-09-12T12:22:27.195Z,4.40
2018-09-12T12:23:27.083Z,4.00
2018-09-12T12:24:27.068Z,4.00
2018-09-12T12:25:27.056Z,4.40
2018-09-12T12:26:27.043Z,4.30
2018-09-12T12:27:27.030Z,4.40
2018-09-12T12:28:27.768Z,5.00
2018-09-12T12:29:27.005Z,3.90
2018-09-12T12:30:26.992Z,4.40
2018-09-12T12:31:26.978Z,4.40
2018-09-12T12:32:26.967Z,4.20
2018-09-12T12:33:26.955Z,4.00
2018-09-12T12:34:26.942Z,4.80
2018-09-12T12:35:26.936Z,4.30
2018-09-12T12:36:26.916Z,4.50
2018-09-12T12:37:26.902Z,4.30
2018-09-12T12:38:26.892Z,4.30
2018-09-12T12:39:26.877Z,4.40
2018-09-12T12:40:26.865Z,4.20
2018-09-12T12:41:26.902Z,4.20
2018-09-12T12:42:26.839Z,4.40
2018-09-12T12:43:26.825Z,4.40
2018-09-12T12:44:26.813Z,4.90
2018-09-12T12:45:26.801Z,4.50
2018-09-12T12:46:26.788Z,3.70
2018-09-12T12:47:26.775Z,4.00
2018-09-12T12:48:26.762Z,4.00
2018-09-12T12:49:26.750Z,4.10
2018-09-12T12:50:26.738Z,4.80
2018-09-12T12:51:26.724Z,4.10
2018-09-12T12:52:26.711Z,4.40
2018-09-12T12:53:26.699Z,4.40
2018-09-12T12:54:26.688Z,4.80
2018-09-12T12:55:26.674Z,4.50
2018-09-12T12:56:26.661Z,4.50
2018-09-12T12:57:26.654Z,4.40
2018-09-12T12:58:26.638Z,4.10
2018-09-12T12:59:26.624Z,4.50